Time;durP1;ratioP1;P1;durP2;ratioP2;P2;SDS_P1;SDS_P2;PMS_P1;PMS_P2;Temp;Humidity;BMP_temperature;BMP_pressure;BME280_temperature;BME280_humidity;BME280_pressure;Samples;Min_cycle;Max_cycle;Signal;HPM_P1;HPM_P2
2022/03/20 00:00:05;;;;;;;9.90;5.90;;;;;;;2.43;79.63;103076.65;107807;1281;61155;-75
2022/03/20 00:02:33;;;;;;;13.30;6.10;;;;;;;2.39;79.21;103073.51;107742;1281;60315;-74
2022/03/20 00:05:02;;;;;;;10.70;6.20;;;;;;;2.35;79.55;103076.66;107803;1279;74947;-75
2022/03/20 00:07:31;;;;;;;13.00;6.30;;;;;;;2.31;79.58;103076.30;107815;1281;72354;-75
2022/03/20 00:09:58;;;;;;;10.30;5.50;;;;;;;2.26;79.88;103077.73;107566;1281;74098;-75
2022/03/20 00:12:25;;;;;;;12.70;5.90;;;;;;;2.22;79.99;103077.35;107809;1281;59233;-75
2022/03/20 00:14:52;;;;;;;8.20;4.40;;;;;;;2.17;80.50;103078.76;107635;1281;59102;-75
2022/03/20 00:17:20;;;;;;;10.00;4.70;;;;;;;2.13;80.75;103075.78;107459;1281;75100;-75
2022/03/20 00:19:47;;;;;;;10.60;5.20;;;;;;;2.08;81.40;103068.50;107827;1281;71227;-75
2022/03/20 00:22:15;;;;;;;11.00;6.20;;;;;;;2.02;81.66;103065.92;107948;1279;73645;-75
2022/03/20 00:24:43;;;;;;;9.30;4.90;;;;;;;1.98;81.63;103065.74;107795;1280;61588;-76
2022/03/20 00:27:14;;;;;;;13.00;7.30;;;;;;;1.93;81.86;103066.10;107829;1281;60577;-75
2022/03/20 00:29:41;;;;;;;11.60;6.10;;;;;;;1.89;81.96;103059.45;107481;1279;74797;-75
2022/03/20 00:32:10;;;;;;;12.50;5.80;;;;;;;1.85;81.82;103054.39;107802;1281;71512;-76
2022/03/20 00:34:37;;;;;;;13.40;6.60;;;;;;;1.81;81.84;103054.71;107601;1281;73149;-76
2022/03/20 00:37:08;;;;;;;11.60;6.70;;;;;;;1.78;81.77;103054.15;107805;1279;61608;-76
2022/03/20 00:39:35;;;;;;;10.80;6.10;;;;;;;1.74;81.42;103058.29;107648;1281;60335;-76
2022/03/20 00:42:03;;;;;;;14.20;7.40;;;;;;;1.70;81.26;103056.03;107654;1281;75974;-76
2022/03/20 00:44:30;;;;;;;13.40;6.90;;;;;;;1.65;81.10;103049.95;107569;1281;70866;-76
2022/03/20 00:46:56;;;;;;;11.30;6.30;;;;;;;1.58;81.07;103042.33;107942;1279;74060;-76
2022/03/20 00:49:23;;;;;;;10.60;6.60;;;;;;;1.54;81.25;103039.36;107749;1279;60488;-76
2022/03/20 00:51:50;;;;;;;9.80;5.50;;;;;;;1.50;81.23;103035.52;107844;1281;60472;-76
2022/03/20 00:54:16;;;;;;;12.20;6.10;;;;;;;1.45;81.29;103036.02;107776;1280;74949;-76
2022/03/20 00:56:43;;;;;;;12.00;8.10;;;;;;;1.43;81.27;103031.90;107661;1282;70504;-76
2022/03/20 00:59:09;;;;;;;14.20;7.10;;;;;;;1.43;80.89;103028.79;107765;1280;75113;-76
2022/03/20 01:01:36;;;;;;;9.70;5.30;;;;;;;1.43;80.90;103027.93;107794;1281;60317;-76
2022/03/20 01:04:03;;;;;;;12.10;6.50;;;;;;;1.42;80.68;103020.27;107814;1281;60630;-76
2022/03/20 01:06:31;;;;;;;14.60;8.00;;;;;;;1.41;80.53;103013.14;107634;1281;76558;-77
2022/03/20 01:08:58;;;;;;;19.30;8.50;;;;;;;1.43;80.36;103010.81;107719;1281;72376;-76
2022/03/20 01:11:25;;;;;;;14.20;7.00;;;;;;;1.43;79.98;103015.55;107810;1279;72899;-76
2022/03/20 01:13:55;;;;;;;11.70;6.60;;;;;;;1.41;79.91;103004.61;107862;1279;61355;-76
2022/03/20 01:16:22;;;;;;;14.90;7.00;;;;;;;1.40;79.67;103001.15;107780;1280;61271;-76
2022/03/20 01:18:52;;;;;;;21.20;8.90;;;;;;;1.41;79.59;103000.98;107782;1281;74674;-76
2022/03/20 01:21:19;;;;;;;13.70;6.30;;;;;;;1.40;79.38;102999.44;107841;1279;71645;-76
2022/03/20 01:23:45;;;;;;;13.80;7.60;;;;;;;1.39;79.11;102995.28;107746;1281;73128;-76
2022/03/20 01:26:12;;;;;;;12.50;8.00;;;;;;;1.38;78.91;102995.16;107753;1280;62512;-76
2022/03/20 01:28:39;;;;;;;15.70;8.60;;;;;;;1.35;78.72;102996.82;107566;1281;60667;-76
2022/03/20 01:31:08;;;;;;;12.70;6.10;;;;;;;1.34;78.51;102994.94;107811;1280;76376;-76
2022/03/20 01:33:36;;;;;;;17.40;7.60;;;;;;;1.33;78.29;102992.91;107661;1282;71464;-75
2022/03/20 01:36:05;;;;;;;17.40;8.80;;;;;;;1.33;78.02;102995.69;107681;1280;73356;-76
2022/03/20 01:38:32;;;;;;;14.70;8.80;;;;;;;1.33;77.57;102989.25;107686;1282;62684;-75
2022/03/20 01:41:00;;;;;;;19.70;8.90;;;;;;;1.33;77.43;102986.64;107912;1279;60274;-76
2022/03/20 01:43:27;;;;;;;13.70;8.40;;;;;;;1.32;77.19;102984.04;107621;1281;74937;-75
2022/03/20 01:45:54;;;;;;;11.40;6.50;;;;;;;1.31;76.95;102981.45;107786;1279;71412;-76
2022/03/20 01:48:21;;;;;;;15.60;8.60;;;;;;;1.31;76.75;102975.92;107828;1280;73058;-75
2022/03/20 01:50:47;;;;;;;17.50;8.80;;;;;;;1.30;76.61;102971.42;107741;1279;61893;-75
2022/03/20 01:53:17;;;;;;;14.00;7.60;;;;;;;1.30;76.34;102964.98;107666;1281;60317;-75
2022/03/20 01:55:44;;;;;;;15.80;8.70;;;;;;;1.28;76.12;102958.07;107462;1281;74756;-75
2022/03/20 01:58:10;;;;;;;13.20;6.10;;;;;;;1.27;76.00;102951.31;107769;1281;72355;-75
2022/03/20 02:00:37;;;;;;;16.90;9.20;;;;;;;1.26;75.82;102941.92;107661;1281;75490;-75
2022/03/20 02:03:03;;;;;;;14.00;6.50;;;;;;;1.24;75.69;102940.27;107603;1281;60054;-75
2022/03/20 02:05:31;;;;;;;14.70;7.90;;;;;;;1.22;75.67;102934.73;107623;1281;62085;-72
2022/03/20 02:07:59;;;;;;;16.70;8.50;;;;;;;1.20;75.55;102938.14;107837;1281;76163;-75
2022/03/20 02:10:35;;;;;;;18.80;8.90;;;;;;;1.15;75.43;102934.64;107777;1281;70638;-75
2022/03/20 02:13:03;;;;;;;19.30;7.50;;;;;;;1.12;75.47;102932.36;107648;1281;73047;-75
2022/03/20 02:15:30;;;;;;;13.70;7.60;;;;;;;1.08;75.38;102932.48;107763;1279;62411;-75
2022/03/20 02:17:58;;;;;;;16.20;8.20;;;;;;;1.05;75.41;102933.63;107689;1279;60613;-75
2022/03/20 02:20:25;;;;;;;14.60;7.40;;;;;;;1.03;75.30;102929.54;107562;1281;75017;-75
2022/03/20 02:22:52;;;;;;;15.70;7.60;;;;;;;1.01;75.27;102928.23;107805;1281;72433;-75
2022/03/20 02:25:19;;;;;;;12.70;8.00;;;;;;;0.99;75.15;102922.89;107793;1280;74054;-75
2022/03/20 02:27:46;;;;;;;13.00;8.10;;;;;;;0.97;75.11;102922.30;107527;1281;62523;-75
2022/03/20 02:30:27;;;;;;;;;;;;;;;;;;;;;
2022/03/20 02:32:58;;;;;;;18.00;9.00;;;;;;;0.91;74.90;102915.18;107781;1281;74648;-73
2022/03/20 02:35:30;;;;;;;12.80;6.90;;;;;;;0.89;74.85;102915.11;107694;1279;71471;-73
2022/03/20 02:38:00;;;;;;;19.00;9.80;;;;;;;0.86;74.62;102915.73;107755;1281;74312;-74
2022/03/20 02:40:34;;;;;;;13.30;8.30;;;;;;;0.82;74.65;102911.68;107709;1281;62374;-74
2022/03/20 02:43:05;;;;;;;15.70;7.60;;;;;;;0.79;74.62;102912.65;107793;1281;61619;-73
2022/03/20 02:45:36;;;;;;;15.10;7.50;;;;;;;0.75;74.54;102904.96;107791;1279;76242;-74
2022/03/20 02:48:06;;;;;;;13.90;7.80;;;;;;;0.72;74.45;102904.02;107770;1281;71364;-74
2022/03/20 02:50:35;;;;;;;14.90;6.60;;;;;;;0.70;74.33;102902.54;107620;1281;75218;-73
2022/03/20 02:53:11;;;;;;;17.20;8.40;;;;;;;0.68;74.27;102899.85;107744;1280;62533;-74
2022/03/20 02:55:40;;;;;;;11.00;5.70;;;;;;;0.64;74.24;102894.05;107709;1280;61746;-74
2022/03/20 02:58:13;;;;;;;18.20;7.20;;;;;;;0.61;74.06;102889.11;107723;1281;75811;-73
2022/03/20 03:00:41;;;;;;;12.80;7.40;;;;;;;0.58;74.12;102888.00;107648;1281;71442;-74
2022/03/20 03:03:11;;;;;;;20.40;9.10;;;;;;;0.56;73.98;102885.48;107630;1281;74100;-74
2022/03/20 03:05:41;;;;;;;14.60;8.20;;;;;;;0.53;73.87;102883.99;107444;1282;61458;-74
2022/03/20 03:11:01;;;;;;;11.70;6.60;;;;;;;0.48;73.63;102880.89;107874;1278;76067;-75
2022/03/20 03:13:30;;;;;;;13.80;7.90;;;;;;;0.45;73.67;102884.48;107733;1281;71456;-75
2022/03/20 03:15:59;;;;;;;14.60;8.20;;;;;;;0.40;73.64;102888.12;107780;1279;74309;-76
2022/03/20 03:18:27;;;;;;;14.30;8.20;;;;;;;0.37;73.57;102887.00;107721;1281;61487;-75
2022/03/20 03:20:54;;;;;;;16.10;7.30;;;;;;;0.35;73.44;102890.05;107626;1280;61631;-75
2022/03/20 03:23:21;;;;;;;15.50;8.20;;;;;;;0.31;73.44;102885.15;107778;1281;75802;-74
2022/03/20 03:25:48;;;;;;;11.40;6.50;;;;;;;0.27;73.51;102890.52;107584;1281;71430;-75
2022/03/20 03:28:15;;;;;;;13.70;7.10;;;;;;;0.24;73.41;102885.06;107720;1281;73987;-74
2022/03/20 03:30:47;;;;;;;15.60;8.40;;;;;;;0.20;73.33;102883.10;107867;1279;61372;-74
2022/03/20 03:33:17;;;;;;;13.90;8.10;;;;;;;0.17;73.37;102883.37;107686;1280;61633;-74
2022/03/20 03:35:54;;;;;;;17.70;8.60;;;;;;;0.15;73.38;102879.27;107641;1281;75163;-74
2022/03/20 03:38:36;;;;;;;16.10;9.10;;;;;;;0.14;73.27;102876.36;107753;1280;71509;-74
2022/03/20 03:41:06;;;;;;;15.10;8.00;;;;;;;0.12;73.14;102874.31;107773;1281;74155;-74
2022/03/20 03:43:58;;;;;;;;;;;;;;;;;;;;;
2022/03/20 03:46:25;;;;;;;13.20;7.40;;;;;;;0.10;72.95;102871.08;107750;1279;59382;-74
2022/03/20 03:48:54;;;;;;;21.40;9.90;;;;;;;0.09;72.99;102862.27;107754;1281;75902;-74
2022/03/20 03:51:42;;;;;;;15.80;8.50;;;;;;;0.07;72.86;102858.34;107704;1279;72157;-74
2022/03/20 03:54:08;;;;;;;13.60;8.00;;;;;;;0.07;72.70;102857.46;107742;1280;74078;-74
2022/03/20 03:56:55;;;;;;;17.70;8.70;;;;;;;0.06;72.46;102858.02;107662;1279;62402;-74
2022/03/20 03:59:22;;;;;;;16.00;7.80;;;;;;;0.05;72.34;102856.84;107751;1281;60915;-74
2022/03/20 04:01:49;;;;;;;15.90;7.50;;;;;;;0.05;72.37;102854.93;107670;1279;75931;-74
2022/03/20 04:04:47;;;;;;;14.20;7.00;;;;;;;0.05;72.20;102851.11;107746;1279;71422;-74
2022/03/20 04:07:13;;;;;;;16.20;8.10;;;;;;;0.04;71.96;102851.31;107701;1280;74014;-75
2022/03/20 04:09:43;;;;;;;18.70;8.30;;;;;;;0.02;71.82;102848.06;107676;1279;62296;-74
2022/03/20 04:12:15;;;;;;;15.00;7.00;;;;;;;-0.01;71.77;102840.67;107715;1279;60305;-75
2022/03/20 04:14:51;;;;;;;18.80;9.10;;;;;;;-0.02;71.48;102836.00;107687;1278;76444;-74
2022/03/20 04:17:17;;;;;;;18.40;10.00;;;;;;;-0.04;71.40;102831.71;107750;1280;71845;-75
2022/03/20 04:19:47;;;;;;;12.90;7.60;;;;;;;-0.03;71.31;102829.42;107584;1279;59182;-75
2022/03/20 04:22:14;;;;;;;14.50;8.30;;;;;;;-0.04;71.13;102826.70;107753;1280;61955;-75
2022/03/20 04:24:41;;;;;;;17.10;9.00;;;;;;;-0.06;70.97;102823.46;107437;1282;60674;-74
2022/03/20 04:27:11;;;;;;;14.00;8.00;;;;;;;-0.07;70.90;102824.39;107717;1279;75874;-75
2022/03/20 04:29:41;;;;;;;16.50;8.70;;;;;;;-0.09;70.72;102823.55;107722;1279;71347;-75
2022/03/20 04:32:11;;;;;;;15.80;8.40;;;;;;;-0.10;70.52;102825.14;107748;1281;72926;-74
2022/03/20 04:34:38;;;;;;;14.20;8.40;;;;;;;-0.11;70.54;102823.79;107768;1281;61446;-75
2022/03/20 04:37:06;;;;;;;18.70;9.50;;;;;;;-0.14;70.38;102821.81;107880;1281;59987;-74
2022/03/20 04:39:38;;;;;;;18.30;9.20;;;;;;;-0.13;70.26;102824.39;108016;1278;76022;-75
2022/03/20 04:42:05;;;;;;;17.30;8.10;;;;;;;-0.15;70.15;102827.09;107866;1281;72423;-74
2022/03/20 04:44:35;;;;;;;15.60;8.20;;;;;;;-0.16;70.08;102826.08;107689;1281;72958;-75
2022/03/20 04:47:02;;;;;;;15.00;6.30;;;;;;;-0.19;69.75;102822.19;107250;1281;580699;-75
2022/03/20 05:00:16;;;;;;;16.00;8.30;;;;;;;-0.30;69.49;102827.25;107878;1279;61616;-75
2022/03/20 05:02:42;;;;;;;21.90;9.60;;;;;;;-0.31;69.38;102829.38;107765;1281;60327;-75
2022/03/20 05:05:09;;;;;;;13.40;7.50;;;;;;;-0.34;69.27;102828.42;107746;1279;73940;-75
2022/03/20 05:07:36;;;;;;;10.80;6.50;;;;;;;-0.35;69.28;102826.36;107910;1279;71345;-75
2022/03/20 05:15:36;;;;;;;14.80;6.90;;;;;;;-0.43;69.11;102825.91;107900;1279;60889;-76
2022/03/20 05:18:08;;;;;;;13.90;8.10;;;;;;;-0.47;69.16;102829.36;107884;1279;74093;-75
2022/03/20 05:20:35;;;;;;;11.40;7.30;;;;;;;-0.49;68.99;102825.45;107756;1280;71931;-76
2022/03/20 05:23:02;;;;;;;18.10;9.60;;;;;;;-0.52;69.05;102819.27;107594;1281;74091;-75
2022/03/20 05:25:29;;;;;;;21.70;11.00;;;;;;;-0.55;69.20;102820.58;107752;1281;60059;-76
2022/03/20 05:27:57;;;;;;;19.00;9.60;;;;;;;-0.57;69.11;102814.93;107756;1281;61660;-75
2022/03/20 05:30:30;;;;;;;17.20;8.80;;;;;;;-0.58;69.01;102813.05;107717;1281;76355;-75
2022/03/20 05:32:57;;;;;;;11.60;6.60;;;;;;;-0.59;68.87;102811.70;107636;1281;73252;-75
2022/03/20 05:35:25;;;;;;;17.10;8.80;;;;;;;-0.61;68.94;102812.96;107701;1282;73513;-75
2022/03/20 05:37:52;;;;;;;18.10;9.20;;;;;;;-0.61;68.76;102811.94;107710;1281;61303;-74
2022/03/20 05:40:19;;;;;;;17.30;10.50;;;;;;;-0.61;68.74;102809.67;107721;1279;60308;-74
2022/03/20 05:42:54;;;;;;;16.00;8.70;;;;;;;-0.61;68.82;102808.61;107732;1281;75938;-74
2022/03/20 05:45:26;;;;;;;17.10;9.00;;;;;;;-0.59;68.58;102807.00;107644;1281;73282;-75
2022/03/20 05:47:56;;;;;;;11.40;7.40;;;;;;;-0.58;68.53;102807.47;107767;1281;72951;-75
2022/03/20 05:50:26;;;;;;;15.10;8.20;;;;;;;-0.56;68.31;102805.34;107734;1281;62470;-75
2022/03/20 05:52:55;;;;;;;17.30;7.10;;;;;;;-0.54;68.24;102800.39;107737;1279;62572;-75
2022/03/20 05:58:01;;;;;;;18.40;9.20;;;;;;;-0.53;68.19;102792.72;107695;1281;74980;-75
2022/03/20 05:58:13;;;;;;;17.70;9.00;;;;;;;-0.52;68.10;102786.59;107906;1279;71780;-74
2022/03/20 06:00:41;;;;;;;14.50;7.10;;;;;;;-0.50;68.14;102780.98;107712;1280;73080;-75
2022/03/20 06:03:30;;;;;;;23.60;8.70;;;;;;;-0.48;67.84;102780.20;107798;1279;62293;-74
2022/03/20 06:06:00;;;;;;;16.10;7.90;;;;;;;-0.44;67.55;102776.77;107701;1279;60364;-75
2022/03/20 06:08:29;;;;;;;12.20;6.30;;;;;;;-0.39;67.36;102775.74;107739;1281;76486;-74
2022/03/20 06:10:56;;;;;;;12.80;7.40;;;;;;;-0.34;67.03;102771.56;107920;1279;71407;-72
2022/03/20 06:13:23;;;;;;;20.70;9.10;;;;;;;-0.28;66.28;102767.71;107676;1280;73941;-74
2022/03/20 06:15:49;;;;;;;12.70;8.10;;;;;;;-0.21;66.38;102763.82;107620;1279;61137;-73
2022/03/20 06:18:16;;;;;;;12.80;7.00;;;;;;;-0.15;65.86;102763.26;107719;1281;60578;-74
2022/03/20 06:20:44;;;;;;;16.20;8.40;;;;;;;-0.08;65.78;102761.45;107685;1281;75093;-74
2022/03/20 06:23:21;;;;;;;;;;;;;;;;;;;;;
2022/03/20 06:25:54;;;;;;;20.90;10.20;;;;;;;0.05;65.21;102766.18;107658;1282;72999;-73
2022/03/20 06:28:21;;;;;;;13.20;7.80;;;;;;;0.12;64.85;102763.34;107777;1280;59849;-72
2022/03/20 06:30:51;;;;;;;13.50;8.00;;;;;;;0.19;64.63;102760.79;107534;1281;59135;-73
2022/03/20 06:33:18;;;;;;;17.10;9.70;;;;;;;0.27;63.75;102765.39;107836;1281;74928;-74
2022/03/20 06:35:52;;;;;;;17.40;8.00;;;;;;;0.34;63.57;102771.21;107765;1277;72442;-74
2022/03/20 06:38:26;;;;;;;15.60;8.30;;;;;;;0.42;62.76;102777.52;107832;1281;73021;-75
2022/03/20 06:40:55;;;;;;;18.70;9.00;;;;;;;0.50;62.48;102782.27;107862;1280;62627;-75
2022/03/20 06:43:23;;;;;;;17.30;7.40;;;;;;;0.57;61.94;102780.30;107671;1281;62105;-75
2022/03/20 06:45:52;;;;;;;14.80;7.60;;;;;;;0.66;61.77;102779.76;107694;1281;75326;-76
2022/03/20 06:48:19;;;;;;;16.20;8.50;;;;;;;0.75;61.47;102774.00;107717;1280;71583;-76
2022/03/20 06:50:51;;;;;;;15.70;7.60;;;;;;;0.84;61.36;102768.62;107793;1281;73771;-75
2022/03/20 06:53:18;;;;;;;18.00;7.30;;;;;;;0.90;60.94;102762.46;107879;1279;61117;-77
2022/03/20 06:55:45;;;;;;;19.20;10.10;;;;;;;1.01;60.56;102769.33;107854;1280;60535;-74
2022/03/20 06:58:13;;;;;;;12.00;7.60;;;;;;;1.10;60.07;102767.74;107798;1281;75973;-75
2022/03/20 07:00:54;;;;;;;;;;;;;;;;;;;;;
2022/03/20 07:03:25;;;;;;;17.80;9.00;;;;;;;1.31;59.38;102768.61;107790;1281;72925;-75
2022/03/20 07:05:53;;;;;;;20.70;8.40;;;;;;;1.40;58.45;102770.52;107773;1280;60054;-75
2022/03/20 07:08:20;;;;;;;16.60;8.90;;;;;;;1.50;58.57;102769.76;107786;1281;61658;-75
2022/03/20 07:10:51;;;;;;;18.30;9.10;;;;;;;1.61;58.11;102776.79;107785;1281;74981;-75
2022/03/20 07:16:06;;;;;;;14.70;7.40;;;;;;;1.86;57.81;102783.75;107661;1279;72862;-74
2022/03/20 07:18:41;;;;;;;18.70;10.80;;;;;;;1.95;56.82;102787.32;107881;1279;59611;-74
2022/03/20 07:21:08;;;;;;;20.80;11.20;;;;;;;2.07;57.16;102789.62;107666;1281;60803;-74
2022/03/20 07:23:36;;;;;;;17.40;9.30;;;;;;;2.18;56.92;102788.63;107827;1279;75157;-75
2022/03/20 07:31:36;;;;;;;18.40;9.50;;;;;;;2.53;55.50;102789.98;107989;1279;60093;-76
2022/03/20 07:34:03;;;;;;;16.00;8.40;;;;;;;2.64;55.43;102785.63;107736;1281;59734;-76
2022/03/20 07:36:30;;;;;;;15.00;8.00;;;;;;;2.75;54.62;102783.73;107912;1278;74949;-76
2022/03/20 07:38:57;;;;;;;20.00;8.60;;;;;;;2.84;53.71;102783.30;107688;1281;72538;-76
2022/03/20 07:41:23;;;;;;;19.20;10.20;;;;;;;2.93;53.24;102781.49;107885;1279;72950;-76
2022/03/20 07:43:50;;;;;;;14.70;8.20;;;;;;;3.03;53.56;102780.80;107713;1281;59888;-76
2022/03/20 07:46:17;;;;;;;16.70;9.20;;;;;;;3.13;53.66;102783.09;107783;1281;61353;-76
2022/03/20 07:48:45;;;;;;;15.70;9.90;;;;;;;3.24;52.80;102779.92;107720;1281;78965;-70
2022/03/20 07:51:12;;;;;;;17.90;10.00;;;;;;;3.33;52.56;102775.48;107717;1279;72463;-67
2022/03/20 07:53:38;;;;;;;18.90;9.80;;;;;;;3.45;52.85;102776.98;107451;1282;73012;-69
2022/03/20 07:56:34;;;;;;;20.40;11.40;;;;;;;3.59;51.94;102777.86;104153;1309;600432;-68
2022/03/20 07:59:05;;;;;;;17.00;9.70;;;;;;;3.67;51.56;102778.30;107416;1284;59722;-68
2022/03/20 08:01:33;;;;;;;17.10;9.90;;;;;;;3.77;51.96;102776.41;107456;1283;59345;-68
2022/03/20 08:04:02;;;;;;;20.00;10.40;;;;;;;3.89;51.86;102774.77;107270;1286;72542;-68
2022/03/20 08:06:29;;;;;;;21.60;12.00;;;;;;;3.98;51.03;102772.15;107438;1284;72546;-68
2022/03/20 08:08:59;;;;;;;18.30;10.30;;;;;;;4.07;50.90;102763.98;107465;1284;73069;-68
2022/03/20 08:11:30;;;;;;;22.00;11.30;;;;;;;4.14;50.20;102754.88;107545;1281;58676;-68
2022/03/20 08:13:57;;;;;;;14.10;8.90;;;;;;;4.23;50.73;102751.94;107780;1281;61999;-68
2022/03/20 08:16:26;;;;;;;15.90;8.20;;;;;;;4.32;50.09;102744.59;106639;1281;73528;-69
2022/03/20 08:18:55;;;;;;;21.70;10.20;;;;;;;4.41;49.53;102740.27;107711;1281;72827;-69
2022/03/20 08:21:22;;;;;;;20.50;10.40;;;;;;;4.51;49.78;102736.75;107495;1283;73188;-69
2022/03/20 08:23:49;;;;;;;21.30;11.50;;;;;;;4.63;50.21;102722.79;106432;1281;59700;-70
2022/03/20 08:26:17;;;;;;;19.50;10.30;;;;;;;4.76;49.65;102722.87;104930;1281;61625;-69
2022/03/20 08:28:52;;;;;;;23.50;10.80;;;;;;;4.88;49.48;102724.16;105028;1281;73356;-68
2022/03/20 08:31:19;;;;;;;21.80;11.20;;;;;;;4.99;48.54;102718.42;105434;1281;72342;-68
2022/03/20 08:33:46;;;;;;;21.20;10.50;;;;;;;5.09;48.60;102713.83;104847;1281;72804;-68
2022/03/20 08:36:14;;;;;;;19.50;9.70;;;;;;;5.17;47.10;102710.75;104940;1281;60852;-67
2022/03/20 08:38:41;;;;;;;22.80;11.30;;;;;;;5.25;47.11;102710.41;104894;1281;60305;-67
2022/03/20 08:41:08;;;;;;;19.90;10.80;;;;;;;5.28;47.21;102692.55;104660;1284;74975;-69
2022/03/20 08:43:37;;;;;;;16.60;9.90;;;;;;;5.46;47.57;102700.58;105450;1274;59747;-68
2022/03/20 08:46:10;;;;;;;18.70;8.30;;;;;;;5.55;46.55;102690.23;105539;1274;74118;-67
2022/03/20 08:48:37;;;;;;;19.90;10.10;;;;;;;5.62;46.30;102688.07;104675;1274;60292;-67
2022/03/20 08:51:06;;;;;;;19.70;10.30;;;;;;;5.70;46.30;102678.55;104681;1274;60429;-68
2022/03/20 08:53:33;;;;;;;19.10;9.80;;;;;;;5.79;45.94;102672.95;105381;1274;72006;-68
2022/03/20 08:56:09;;;;;;;20.20;11.30;;;;;;;5.85;45.40;102669.92;105177;1274;71506;-67
2022/03/20 08:58:36;;;;;;;23.60;12.90;;;;;;;5.92;45.42;102659.65;105349;1274;72109;-67
2022/03/20 09:01:06;;;;;;;19.30;9.80;;;;;;;5.99;45.21;102653.86;104708;1274;60484;-69
2022/03/20 09:03:33;;;;;;;19.70;11.30;;;;;;;6.05;45.09;102653.65;108371;1274;60638;-69
2022/03/20 09:06:00;;;;;;;18.80;9.90;;;;;;;6.15;45.39;102653.15;105541;1274;74613;-68
2022/03/20 09:08:27;;;;;;;20.20;10.60;;;;;;;6.25;45.06;102650.95;105130;1277;71518;-68
2022/03/20 09:10:57;;;;;;;19.70;11.80;;;;;;;6.35;45.24;102643.65;105169;1277;73990;-69
2022/03/20 09:13:23;;;;;;;16.60;9.40;;;;;;;6.47;45.21;102644.98;105290;1277;60200;-69
2022/03/20 09:18:59;;;;;;;16.80;9.10;;;;;;;6.58;44.89;102642.48;105233;1274;59643;-69
2022/03/20 09:21:28;;;;;;;;;;;;;;;6.83;44.44;102638.88;105354;1274;71558;-71
2022/03/20 09:23:56;;;;;;;18.90;9.80;;;;;;;6.97;44.31;102639.05;105254;1274;74069;-72
2022/03/20 09:26:22;;;;;;;18.30;9.40;;;;;;;7.08;44.21;102634.91;105133;1277;61066;-71
2022/03/20 09:28:50;;;;;;;21.00;11.50;;;;;;;7.20;44.28;102630.80;105308;1274;60715;-70
2022/03/20 09:31:19;;;;;;;19.50;11.30;;;;;;;7.30;44.46;102635.70;105017;1277;74510;-71
2022/03/20 09:33:46;;;;;;;18.00;10.20;;;;;;;7.45;44.26;102631.89;105238;1277;72471;-71
2022/03/20 09:36:21;;;;;;;18.00;9.70;;;;;;;7.57;42.99;102628.75;105197;1275;74157;-71
2022/03/20 09:38:52;;;;;;;18.00;11.30;;;;;;;7.64;42.42;102624.21;105251;1274;60461;-71
2022/03/20 09:41:30;;;;;;;16.70;9.30;;;;;;;7.66;42.00;102621.57;105436;1275;60647;-72
2022/03/20 09:43:57;;;;;;;19.00;10.80;;;;;;;7.70;42.10;102622.71;105445;1277;72533;-69
2022/03/20 09:46:26;;;;;;;16.00;9.10;;;;;;;7.77;41.74;102617.66;105368;1274;71405;-70
2022/03/20 09:48:54;;;;;;;18.70;10.10;;;;;;;7.88;42.27;102621.11;105342;1274;73646;-70
2022/03/20 09:51:21;;;;;;;20.30;9.90;;;;;;;7.96;41.47;102616.30;106090;1274;60569;-70
2022/03/20 09:53:47;;;;;;;12.80;8.10;;;;;;;8.03;40.83;102616.31;105374;1275;61786;-69
2022/03/20 09:56:14;;;;;;;17.30;10.10;;;;;;;8.06;40.43;102610.42;105409;1274;73487;-69
2022/03/20 09:58:40;;;;;;;21.70;11.30;;;;;;;8.12;40.67;102614.79;105512;1277;71335;-69
2022/03/20 10:01:08;;;;;;;18.90;10.40;;;;;;;8.23;40.68;102613.14;105608;1274;74001;-70
2022/03/20 10:03:35;;;;;;;15.70;9.60;;;;;;;8.32;40.35;102612.48;105317;1274;59762;-69
2022/03/20 10:06:17;;;;;;;19.70;11.10;;;;;;;8.43;40.49;102612.22;105410;1274;61292;-70
2022/03/20 10:09:06;;;;;;;18.60;10.10;;;;;;;8.55;39.90;102611.67;105207;1274;73750;-70
2022/03/20 10:11:35;;;;;;;20.10;11.00;;;;;;;8.67;39.99;102606.52;105314;1274;71564;-70
2022/03/20 10:14:16;;;;;;;18.10;10.30;;;;;;;8.80;40.41;102606.45;106266;1274;71933;-70
2022/03/20 10:16:48;;;;;;;16.00;9.10;;;;;;;8.93;39.60;102601.19;105203;1274;61274;-70
2022/03/20 10:19:24;;;;;;;17.10;10.50;;;;;;;9.06;39.77;102592.25;105482;1274;60525;-68
2022/03/20 10:21:54;;;;;;;16.60;10.20;;;;;;;9.14;38.44;102584.42;105181;1274;73211;-70
2022/03/20 10:24:23;;;;;;;16.30;9.50;;;;;;;9.22;38.74;102578.66;105698;1274;59659;-70
2022/03/20 10:27:05;;;;;;;20.10;10.70;;;;;;;9.31;38.26;102577.79;105346;1274;73655;-70
2022/03/20 10:29:33;;;;;;;16.90;10.40;;;;;;;9.42;38.57;102571.98;105236;1274;61721;-70
2022/03/20 10:32:10;;;;;;;17.60;10.30;;;;;;;9.51;38.76;102560.30;105004;1277;59564;-70
2022/03/20 10:35:01;;;;;;;17.50;10.40;;;;;;;9.56;37.92;102557.80;105496;1274;74366;-72
2022/03/20 10:37:55;;;;;;;17.30;9.20;;;;;;;9.63;36.92;102552.27;105473;1275;71471;-70
2022/03/20 10:40:24;;;;;;;14.10;8.00;;;;;;;9.75;37.41;102538.64;105219;1274;73974;-70
2022/03/20 10:43:09;;;;;;;23.30;10.60;;;;;;;9.78;37.09;102537.45;105298;1274;60438;-70
2022/03/20 10:45:54;;;;;;;16.70;9.50;;;;;;;9.87;36.85;102540.48;105165;1273;61616;-70
2022/03/20 10:48:35;;;;;;;13.40;8.80;;;;;;;9.98;37.25;102534.48;105433;1274;75536;-72
2022/03/20 10:51:09;;;;;;;20.70;10.10;;;;;;;10.08;36.32;102533.14;105184;1274;72394;-71
2022/03/20 10:53:52;;;;;;;16.90;10.00;;;;;;;10.16;35.81;102539.19;105235;1274;73819;-71
2022/03/20 10:56:19;;;;;;;12.80;8.30;;;;;;;10.26;36.59;102537.09;105271;1274;60707;-69
2022/03/20 10:58:45;;;;;;;13.90;8.30;;;;;;;10.39;35.90;102537.32;105088;1274;61562;-70
2022/03/20 11:01:12;;;;;;;17.30;8.60;;;;;;;10.50;35.44;102537.96;105237;1274;74496;-69
2022/03/20 11:03:43;;;;;;;12.60;7.90;;;;;;;10.60;34.69;102539.29;105286;1274;71100;-71
2022/03/20 11:06:11;;;;;;;14.30;9.30;;;;;;;10.68;34.89;102534.90;105430;1274;73625;-71
2022/03/20 11:08:38;;;;;;;15.90;10.30;;;;;;;10.77;35.63;102534.78;105199;1274;60326;-71
2022/03/20 11:11:10;;;;;;;19.00;10.70;;;;;;;10.84;35.07;102532.63;105347;1274;60621;-71
2022/03/20 11:13:40;;;;;;;17.70;9.90;;;;;;;10.87;35.29;102525.78;105250;1274;74314;-70
2022/03/20 11:16:19;;;;;;;19.70;10.50;;;;;;;10.90;35.25;102524.88;105578;1274;72358;-71
2022/03/20 11:18:51;;;;;;;20.30;11.40;;;;;;;11.00;35.22;102520.45;105147;1273;74091;-72
2022/03/20 11:21:23;;;;;;;18.30;9.50;;;;;;;11.14;36.02;102520.82;105203;1274;60405;-70
2022/03/20 11:23:54;;;;;;;15.20;8.10;;;;;;;11.23;35.74;102512.20;105279;1274;61563;-71
2022/03/20 11:26:24;;;;;;;15.00;9.30;;;;;;;11.35;35.98;102508.34;105230;1274;74413;-69
2022/03/20 11:28:59;;;;;;;16.00;9.90;;;;;;;11.51;35.88;102514.58;105309;1274;71388;-70
2022/03/20 11:31:26;;;;;;;;;;;;;;;11.68;35.41;102507.88;105475;1274;71894;-71
2022/03/20 11:33:56;;;;;;;22.80;9.70;;;;;;;11.88;35.30;102504.18;105310;1274;60497;-70
2022/03/20 11:36:22;;;;;;;19.80;9.70;;;;;;;12.05;35.25;102501.02;105306;1272;61942;-71
2022/03/20 11:39:10;;;;;;;17.90;9.10;;;;;;;12.15;33.46;102495.18;105379;1273;74877;-70
2022/03/20 11:41:37;;;;;;;17.00;8.20;;;;;;;12.27;33.23;102497.09;105416;1275;73244;-73
2022/03/20 11:44:20;;;;;;;11.20;7.80;;;;;;;12.32;30.85;102491.64;105509;1274;74210;-71
2022/03/20 11:47:12;;;;;;;16.70;8.90;;;;;;;12.34;30.37;102493.94;105407;1274;61863;-71
2022/03/20 11:49:40;;;;;;;16.80;8.70;;;;;;;12.42;30.72;102502.81;105732;1274;60589;-71
2022/03/20 11:52:13;;;;;;;15.80;8.40;;;;;;;12.54;30.29;102499.17;105273;1274;73641;-71
2022/03/20 11:54:39;;;;;;;16.60;7.60;;;;;;;12.62;30.01;102497.22;105418;1274;73253;-70
2022/03/20 11:57:28;;;;;;;20.40;8.60;;;;;;;12.89;30.55;102498.92;105344;1274;73034;-70
2022/03/20 11:59:56;;;;;;;12.70;7.10;;;;;;;13.27;29.82;102496.48;105179;1274;60760;-70
2022/03/20 12:02:45;;;;;;;18.40;8.20;;;;;;;13.55;27.63;102500.38;105320;1274;60717;-70